createdAt,value
2019-05-23T00:00:58.947Z,10.80
2019-05-23T00:03:52.646Z,11.97
2019-05-23T00:06:40.869Z,10.80
2019-05-23T00:09:30.064Z,10.28
2019-05-23T00:12:11.594Z,10.30
2019-05-23T00:14:53.183Z,11.08
2019-05-23T00:17:24.219Z,11.13
2019-05-23T00:19:54.077Z,10.97
2019-05-23T00:22:33.959Z,11.17
2019-05-23T00:25:05.014Z,11.48
2019-05-23T00:27:34.776Z,10.63
2019-05-23T00:30:05.284Z,11.68
2019-05-23T00:32:45.885Z,11.43
2019-05-23T00:35:19.396Z,11.30
2019-05-23T00:37:51.262Z,11.20
2019-05-23T00:40:23.822Z,12.17
2019-05-23T00:42:54.818Z,10.97
2019-05-23T00:45:25.247Z,12.07
2019-05-23T00:47:55.947Z,12.07
2019-05-23T00:50:27.678Z,12.47
2019-05-23T00:52:57.590Z,12.88
2019-05-23T00:55:28.857Z,13.27
2019-05-23T00:57:59.424Z,13.18
2019-05-23T01:00:30.238Z,13.27
2019-05-23T01:03:00.182Z,13.37
2019-05-23T01:05:31.094Z,13.68
2019-05-23T01:08:01.610Z,12.83
2019-05-23T01:10:32.220Z,13.17
2019-05-23T01:13:02.553Z,13.83
2019-05-23T01:15:32.802Z,13.30
2019-05-23T01:18:04.144Z,13.13
2019-05-23T01:20:44.803Z,12.83
2019-05-23T01:23:15.147Z,13.43
2019-05-23T01:25:44.851Z,12.60
2019-05-23T01:28:14.616Z,13.55
2019-05-23T01:30:46.411Z,13.90
2019-05-23T01:33:17.814Z,12.70
2019-05-23T01:35:48.109Z,13.87
2019-05-23T01:38:19.536Z,13.68
2019-05-23T01:40:49.795Z,13.53
2019-05-23T01:43:20.550Z,13.43
2019-05-23T01:45:50.536Z,14.57
2019-05-23T01:48:20.665Z,14.20
2019-05-23T01:50:50.824Z,15.17
2019-05-23T01:53:21.386Z,15.53
2019-05-23T01:55:51.264Z,13.75
2019-05-23T01:58:21.500Z,14.97
2019-05-23T02:00:51.614Z,13.57
2019-05-23T02:03:21.547Z,14.28
2019-05-23T02:05:51.325Z,15.27
2019-05-23T02:08:21.023Z,15.15
2019-05-23T02:10:51.297Z,15.17
2019-05-23T02:13:22.380Z,15.80
2019-05-23T02:15:53.606Z,15.87
2019-05-23T02:18:25.343Z,15.90
2019-05-23T02:20:55.223Z,16.12
2019-05-23T02:23:25.105Z,15.57
2019-05-23T02:25:55.567Z,15.45
2019-05-23T02:28:25.497Z,16.13
2019-05-23T02:30:55.633Z,15.80
2019-05-23T02:33:25.415Z,15.13
2019-05-23T02:35:55.267Z,14.67
2019-05-23T02:38:43.540Z,15.48
2019-05-23T02:41:27.371Z,15.17
2019-05-23T02:44:01.576Z,14.97
2019-05-23T02:46:51.053Z,14.43
2019-05-23T02:49:22.989Z,14.77
2019-05-23T02:51:53.543Z,14.63
2019-05-23T02:54:25.778Z,14.73
2019-05-23T02:56:56.494Z,14.53
2019-05-23T02:59:48.916Z,14.07
2019-05-23T03:02:35.443Z,15.37
2019-05-23T03:05:07.051Z,14.13
2019-05-23T03:07:36.767Z,15.90
2019-05-23T03:10:09.222Z,15.53
2019-05-23T03:12:40.971Z,16.97
2019-05-23T03:15:12.637Z,17.03
2019-05-23T03:17:45.306Z,15.60
2019-05-23T03:20:16.367Z,16.80
2019-05-23T03:22:56.299Z,15.75
2019-05-23T03:26:19.704Z,15.83
2019-05-23T03:28:51.102Z,15.00
2019-05-23T03:31:32.420Z,15.03
2019-05-23T03:34:01.067Z,15.80
2019-05-23T03:36:30.985Z,15.20
2019-05-23T03:39:00.993Z,15.40
2019-05-23T03:41:31.829Z,14.80
2019-05-23T03:44:03.105Z,14.87
2019-05-23T03:46:34.500Z,16.12
2019-05-23T03:49:05.281Z,16.23
2019-05-23T03:51:36.484Z,15.00
2019-05-23T03:54:06.460Z,16.57
2019-05-23T03:56:36.107Z,15.97
2019-05-23T03:59:07.648Z,16.93
2019-05-23T04:01:47.651Z,15.60
2019-05-23T04:04:09.783Z,16.80
2019-05-23T04:06:39.451Z,15.87
2019-05-23T04:09:10.583Z,16.40
2019-05-23T04:11:40.520Z,16.57
2019-05-23T04:14:10.521Z,17.10
2019-05-23T04:16:40.155Z,16.43
2019-05-23T04:19:09.902Z,16.23
2019-05-23T04:21:39.650Z,18.25
2019-05-23T04:24:09.413Z,17.47
2019-05-23T04:26:40.314Z,17.90
2019-05-23T04:29:10.441Z,16.60
2019-05-23T04:31:40.229Z,17.47
2019-05-23T04:34:09.993Z,17.60
2019-05-23T04:36:40.228Z,17.73
2019-05-23T04:39:10.672Z,16.73
2019-05-23T04:41:40.363Z,17.57
2019-05-23T04:44:10.310Z,16.87
2019-05-23T04:46:40.388Z,17.65
2019-05-23T04:49:11.152Z,16.47
2019-05-23T04:51:41.389Z,17.40
2019-05-23T04:54:12.037Z,16.93
2019-05-23T04:56:41.461Z,16.17
2019-05-23T04:59:11.240Z,16.90
2019-05-23T05:01:40.876Z,16.43
2019-05-23T05:04:10.613Z,15.72
2019-05-23T05:06:40.245Z,16.83
2019-05-23T05:09:13.034Z,16.17
2019-05-23T05:11:42.835Z,15.83
2019-05-23T05:14:12.573Z,17.00
2019-05-23T05:16:42.289Z,16.10
2019-05-23T05:19:12.088Z,15.97
2019-05-23T05:21:41.930Z,15.73
2019-05-23T05:24:11.565Z,17.53
2019-05-23T05:26:42.261Z,17.90
2019-05-23T05:29:12.758Z,17.40
2019-05-23T05:31:42.569Z,18.00
2019-05-23T05:34:12.273Z,18.02
2019-05-23T05:36:42.117Z,17.97
2019-05-23T05:39:12.965Z,18.00
2019-05-23T05:41:43.307Z,18.07
2019-05-23T05:44:13.489Z,18.60
2019-05-23T05:46:43.334Z,18.27
2019-05-23T05:49:13.652Z,19.07
2019-05-23T05:51:43.654Z,20.10
2019-05-23T05:54:13.468Z,18.63
2019-05-23T05:56:43.178Z,19.97
2019-05-23T05:59:14.057Z,18.80
2019-05-23T06:01:44.351Z,19.17
2019-05-23T06:04:14.071Z,20.40
2019-05-23T06:06:50.267Z,19.90
2019-05-23T06:09:23.597Z,20.30
2019-05-23T06:11:54.571Z,20.70
2019-05-23T06:14:24.365Z,20.77
2019-05-23T06:16:56.308Z,21.30
2019-05-23T06:19:27.032Z,19.90
2019-05-23T06:21:56.709Z,21.33
2019-05-23T06:24:42.238Z,21.47
2019-05-23T06:26:58.884Z,22.03
2019-05-23T06:29:28.882Z,22.63
2019-05-23T06:31:58.965Z,20.65
2019-05-23T06:34:28.710Z,22.73
2019-05-23T06:36:59.217Z,21.95
2019-05-23T06:39:28.945Z,22.53
2019-05-23T06:41:59.758Z,22.53
2019-05-23T06:44:29.403Z,22.60
2019-05-23T06:46:59.614Z,22.13
2019-05-23T06:49:29.590Z,23.10
2019-05-23T06:51:59.431Z,22.93
2019-05-23T06:54:29.118Z,23.80
2019-05-23T06:56:58.949Z,24.57
2019-05-23T06:59:29.083Z,22.93
2019-05-23T07:01:59.201Z,24.10
2019-05-23T07:04:29.186Z,25.10
2019-05-23T07:07:01.152Z,24.07
2019-05-23T07:09:30.797Z,23.37
2019-05-23T07:12:00.781Z,24.30
2019-05-23T07:14:31.908Z,24.60
2019-05-23T07:17:01.747Z,26.23
2019-05-23T07:19:31.627Z,24.20
2019-05-23T07:22:01.374Z,22.70
2019-05-23T07:24:31.766Z,23.45
2019-05-23T07:27:01.638Z,22.85
2019-05-23T07:29:31.430Z,22.05
2019-05-23T07:32:01.148Z,23.77
2019-05-23T07:34:30.985Z,24.93
2019-05-23T07:37:01.618Z,22.83
2019-05-23T07:39:31.313Z,24.12
2019-05-23T07:42:01.355Z,24.72
2019-05-23T07:44:45.990Z,23.85
2019-05-23T07:47:02.769Z,21.45
2019-05-23T07:49:33.685Z,21.87
2019-05-23T07:52:03.465Z,21.30
2019-05-23T07:54:41.713Z,21.33
2019-05-23T07:57:13.607Z,18.62
2019-05-23T07:59:43.263Z,15.80
2019-05-23T08:02:28.569Z,16.32
2019-05-23T08:04:58.796Z,11.33
2019-05-23T08:07:32.448Z,11.88
2019-05-23T08:10:01.141Z,13.38
2019-05-23T08:12:31.455Z,11.83
2019-05-23T08:15:02.112Z,12.75
2019-05-23T08:17:32.094Z,14.03
2019-05-23T08:20:01.979Z,14.05
2019-05-23T08:22:31.999Z,9.83
2019-05-23T08:25:01.705Z,8.70
2019-05-23T08:27:31.513Z,8.50
2019-05-23T08:30:02.337Z,9.05
2019-05-23T08:32:35.034Z,9.80
2019-05-23T08:35:05.136Z,8.75
2019-05-23T08:37:35.399Z,9.27
2019-05-23T08:40:06.024Z,8.87
2019-05-23T08:42:36.275Z,9.08
2019-05-23T08:45:08.777Z,9.50
2019-05-23T08:47:38.780Z,8.75
2019-05-23T08:50:11.288Z,9.73
2019-05-23T08:52:41.026Z,10.68
2019-05-23T08:55:20.151Z,7.80
2019-05-23T08:57:50.653Z,7.53
2019-05-23T09:00:22.601Z,7.80
2019-05-23T09:02:53.169Z,8.40
2019-05-23T09:05:26.681Z,8.63
2019-05-23T09:07:56.915Z,7.47
2019-05-23T09:10:27.165Z,6.33
2019-05-23T09:12:57.146Z,6.42
2019-05-23T09:15:26.903Z,6.55
2019-05-23T09:17:56.858Z,7.08
2019-05-23T09:20:26.736Z,7.00
2019-05-23T09:22:56.792Z,6.80
2019-05-23T09:25:26.719Z,7.15
2019-05-23T09:27:56.955Z,7.23
2019-05-23T09:30:29.757Z,6.90
2019-05-23T09:32:59.453Z,7.10
2019-05-23T09:35:29.758Z,6.47
2019-05-23T09:37:59.459Z,7.58
2019-05-23T09:40:29.427Z,7.70
2019-05-23T09:42:59.231Z,6.30
2019-05-23T09:45:29.000Z,8.00
2019-05-23T09:47:58.719Z,6.72
2019-05-23T09:50:28.561Z,6.97
2019-05-23T09:52:58.536Z,6.83
2019-05-23T09:55:29.288Z,6.60
2019-05-23T09:57:59.190Z,6.92
2019-05-23T10:00:29.384Z,8.35
2019-05-23T10:02:59.654Z,7.97
2019-05-23T10:05:42.172Z,7.97
2019-05-23T10:08:01.796Z,7.65
2019-05-23T10:10:31.589Z,7.35
2019-05-23T10:13:01.357Z,6.80
2019-05-23T10:15:41.535Z,6.57
2019-05-23T10:18:14.950Z,6.62
2019-05-23T10:20:44.623Z,5.90
2019-05-23T10:23:17.233Z,5.83
2019-05-23T10:25:47.047Z,4.87
2019-05-23T10:28:17.161Z,7.03
2019-05-23T10:30:46.959Z,5.83
2019-05-23T10:33:16.847Z,6.62
2019-05-23T10:35:59.614Z,6.33
2019-05-23T10:38:19.118Z,5.33
2019-05-23T10:40:49.100Z,4.80
2019-05-23T10:43:19.011Z,5.77
2019-05-23T10:45:49.064Z,6.08
2019-05-23T10:48:18.962Z,5.60
2019-05-23T10:50:49.326Z,5.62
2019-05-23T10:53:20.298Z,5.65
2019-05-23T10:55:50.147Z,5.90
2019-05-23T10:58:20.052Z,7.05
2019-05-23T11:00:50.810Z,6.82
2019-05-23T11:03:21.215Z,7.60
2019-05-23T11:05:51.556Z,7.05
2019-05-23T11:08:27.761Z,7.05
2019-05-23T11:10:52.990Z,6.15
2019-05-23T11:13:22.772Z,6.93
2019-05-23T11:15:52.520Z,6.85
2019-05-23T11:18:22.194Z,7.33
2019-05-23T11:20:52.147Z,6.70
2019-05-23T11:23:25.753Z,6.28
2019-05-23T11:25:55.661Z,8.03
2019-05-23T11:28:25.515Z,6.70
2019-05-23T11:30:57.493Z,6.43
2019-05-23T11:33:27.505Z,6.62
2019-05-23T11:35:58.138Z,5.47
2019-05-23T11:38:27.846Z,5.85
2019-05-23T11:40:57.593Z,5.37
2019-05-23T11:43:27.325Z,5.65
2019-05-23T11:46:07.319Z,5.58
2019-05-23T11:48:37.121Z,5.97
2019-05-23T11:51:06.969Z,5.53
2019-05-23T11:53:38.732Z,5.90
2019-05-23T11:56:08.451Z,5.90
2019-05-23T11:58:38.135Z,5.02
2019-05-23T12:01:20.504Z,4.83
2019-05-23T12:03:48.298Z,5.57
2019-05-23T12:06:18.799Z,6.00
2019-05-23T12:08:49.030Z,5.24
2019-05-23T12:11:19.580Z,6.53
2019-05-23T12:13:49.206Z,4.90
2019-05-23T12:16:20.618Z,5.75
2019-05-23T12:18:50.450Z,6.60
2019-05-23T12:21:21.114Z,6.37
2019-05-23T12:23:50.775Z,7.08
2019-05-23T12:26:20.536Z,5.78
2019-05-23T12:28:50.255Z,5.47
2019-05-23T12:31:20.144Z,6.30
2019-05-23T12:33:50.075Z,6.08
2019-05-23T12:36:21.002Z,5.67
2019-05-23T12:38:51.767Z,5.53
2019-05-23T12:41:21.687Z,6.53
2019-05-23T12:43:51.532Z,7.78
2019-05-23T12:46:21.463Z,6.80
2019-05-23T12:49:01.375Z,6.12
2019-05-23T12:51:33.458Z,5.80
2019-05-23T12:54:03.286Z,6.53
2019-05-23T12:56:33.881Z,6.80
2019-05-23T12:59:04.899Z,6.97
2019-05-23T13:01:35.783Z,6.62
2019-05-23T13:04:09.924Z,6.83
2019-05-23T13:06:37.258Z,6.70
2019-05-23T13:09:09.200Z,8.00
2019-05-23T13:11:38.987Z,9.10
2019-05-23T13:14:09.107Z,7.53
2019-05-23T13:16:38.850Z,8.80
2019-05-23T13:19:08.793Z,8.53
2019-05-23T13:21:38.504Z,8.35
2019-05-23T13:24:08.246Z,9.73
2019-05-23T13:26:39.016Z,9.88
2019-05-23T13:29:08.954Z,10.20
2019-05-23T13:31:38.826Z,9.10
2019-05-23T13:34:08.618Z,9.45
2019-05-23T13:36:38.395Z,10.23
2019-05-23T13:39:09.538Z,9.10
2019-05-23T13:41:40.451Z,7.58
2019-05-23T13:44:10.185Z,7.87
2019-05-23T13:46:40.858Z,7.30
2019-05-23T13:49:10.939Z,6.85
2019-05-23T13:51:40.843Z,8.43
2019-05-23T13:54:10.596Z,6.78
2019-05-23T13:56:40.248Z,6.80
2019-05-23T13:59:10.106Z,6.60
2019-05-23T14:01:39.870Z,6.90
2019-05-23T14:04:10.189Z,6.87
2019-05-23T14:06:40.119Z,6.35
2019-05-23T14:09:10.241Z,7.37
2019-05-23T14:11:40.026Z,6.60
2019-05-23T14:14:10.627Z,7.17
2019-05-23T14:16:49.770Z,7.12
2019-05-23T14:19:19.666Z,7.00
2019-05-23T14:21:49.600Z,6.72
2019-05-23T14:24:20.253Z,7.58
2019-05-23T14:26:56.499Z,6.97
2019-05-23T14:29:26.619Z,6.83
2019-05-23T14:32:04.502Z,6.53
2019-05-23T14:34:34.470Z,6.87
2019-05-23T14:37:13.012Z,5.83
2019-05-23T14:39:45.621Z,5.75
2019-05-23T14:42:31.706Z,5.85
2019-05-23T14:45:01.544Z,5.62
2019-05-23T14:47:44.750Z,5.90
2019-05-23T14:50:32.315Z,4.90
2019-05-23T14:53:03.954Z,5.70
2019-05-23T14:55:34.691Z,5.62
2019-05-23T14:58:04.646Z,4.65
2019-05-23T15:00:34.880Z,5.85
2019-05-23T15:03:04.848Z,5.90
2019-05-23T15:05:34.793Z,4.94
2019-05-23T15:08:04.655Z,5.33
2019-05-23T15:10:34.988Z,5.17
2019-05-23T15:13:04.942Z,5.00
2019-05-23T15:15:34.817Z,4.92
2019-05-23T15:18:07.175Z,4.30
2019-05-23T15:20:38.719Z,5.00
2019-05-23T15:23:14.433Z,4.87
2019-05-23T15:25:49.569Z,4.97
2019-05-23T15:28:24.322Z,4.40
2019-05-23T15:31:09.286Z,4.67
2019-05-23T15:33:49.283Z,3.92
2019-05-23T15:36:23.931Z,3.52
2019-05-23T15:39:08.881Z,4.20
2019-05-23T15:41:35.493Z,4.22
2019-05-23T15:44:24.215Z,3.67
2019-05-23T15:46:52.139Z,3.98
2019-05-23T15:49:23.662Z,3.40
2019-05-23T15:52:11.567Z,3.72
2019-05-23T15:55:04.195Z,3.37
2019-05-23T15:58:01.023Z,3.15
2019-05-23T16:00:49.393Z,2.84
2019-05-23T16:03:41.189Z,2.60
2019-05-23T16:06:19.871Z,2.42
2019-05-23T16:08:51.809Z,2.60
2019-05-23T16:11:25.545Z,2.42
2019-05-23T16:14:01.906Z,2.30
2019-05-23T16:16:33.764Z,2.37
2019-05-23T16:19:13.148Z,2.37
2019-05-23T16:21:48.223Z,2.58
2019-05-23T16:24:25.313Z,1.98
2019-05-23T16:26:57.916Z,2.30
2019-05-23T16:29:34.130Z,1.82
2019-05-23T16:32:06.519Z,1.77
2019-05-23T16:34:43.261Z,2.03
2019-05-23T16:37:24.594Z,1.75
2019-05-23T16:39:56.610Z,2.20
2019-05-23T16:42:27.753Z,2.05
2019-05-23T16:45:10.370Z,2.30
2019-05-23T16:47:53.136Z,2.17
2019-05-23T16:50:31.285Z,1.98
2019-05-23T16:53:03.884Z,2.20
2019-05-23T16:55:47.542Z,2.10
2019-05-23T16:58:30.828Z,2.20
2019-05-23T17:01:24.621Z,1.92
2019-05-23T17:04:06.672Z,2.70
2019-05-23T17:06:44.240Z,1.92
2019-05-23T17:09:32.091Z,1.90
2019-05-23T17:12:21.250Z,2.08
2019-05-23T17:14:55.893Z,1.67
2019-05-23T17:18:00.152Z,2.30
2019-05-23T17:20:34.736Z,2.30
2019-05-23T17:23:12.600Z,2.05
2019-05-23T17:25:56.946Z,1.98
2019-05-23T17:28:47.760Z,2.07
2019-05-23T17:31:23.174Z,2.20
2019-05-23T17:33:53.050Z,1.85
2019-05-23T17:36:23.155Z,1.90
2019-05-23T17:38:52.924Z,2.30
2019-05-23T17:41:22.842Z,1.90
2019-05-23T17:43:52.830Z,2.47
2019-05-23T17:46:22.779Z,1.92
2019-05-23T17:48:52.730Z,1.77
2019-05-23T17:51:22.709Z,1.82
2019-05-23T17:53:52.621Z,1.92
2019-05-23T17:56:22.337Z,2.00
2019-05-23T17:58:52.878Z,2.08
2019-05-23T18:01:24.528Z,2.37
2019-05-23T18:03:54.197Z,2.20
2019-05-23T18:06:25.107Z,1.88
2019-05-23T18:08:55.151Z,1.90
2019-05-23T18:11:33.035Z,1.98
2019-05-23T18:14:03.784Z,2.10
2019-05-23T18:16:33.475Z,2.70
2019-05-23T18:19:04.207Z,1.93
2019-05-23T18:21:34.690Z,2.30
2019-05-23T18:24:05.175Z,2.65
2019-05-23T18:26:35.538Z,2.10
2019-05-23T18:29:05.864Z,2.10
2019-05-23T18:31:38.746Z,2.37
2019-05-23T18:34:09.315Z,1.87
2019-05-23T18:36:39.591Z,1.77
2019-05-23T18:39:12.413Z,1.82
2019-05-23T18:41:43.171Z,1.87
2019-05-23T18:44:13.474Z,2.10
2019-05-23T18:46:47.017Z,2.00
2019-05-23T18:49:17.116Z,2.05
2019-05-23T18:51:46.952Z,2.00
2019-05-23T18:54:16.995Z,2.30
2019-05-23T18:56:46.968Z,2.05
2019-05-23T18:59:17.760Z,2.27
2019-05-23T19:01:47.707Z,1.75
2019-05-23T19:04:19.226Z,2.00
2019-05-23T19:06:49.427Z,2.17
2019-05-23T19:09:20.798Z,2.20
2019-05-23T19:11:50.659Z,2.08
2019-05-23T19:14:21.002Z,2.35
2019-05-23T19:16:51.188Z,2.58
2019-05-23T19:19:26.754Z,2.20
2019-05-23T19:21:56.733Z,2.40
2019-05-23T19:24:26.561Z,2.45
2019-05-23T19:26:57.933Z,2.67
2019-05-23T19:29:27.844Z,2.70
2019-05-23T19:31:59.038Z,3.45
2019-05-23T19:34:29.322Z,3.67
2019-05-23T19:36:59.321Z,3.60
2019-05-23T19:39:29.437Z,3.50
2019-05-23T19:41:59.089Z,3.40
2019-05-23T19:44:29.937Z,3.47
2019-05-23T19:46:59.973Z,3.50
2019-05-23T19:49:31.073Z,2.93
2019-05-23T19:52:01.208Z,3.40
2019-05-23T19:54:31.307Z,3.50
2019-05-23T19:57:01.054Z,3.63
2019-05-23T20:02:36.314Z,4.72
2019-05-23T20:05:12.441Z,4.50
2019-05-23T20:07:43.437Z,4.10
2019-05-23T20:10:13.852Z,4.50
2019-05-23T20:12:43.747Z,5.20
2019-05-23T20:15:13.939Z,5.50
2019-05-23T20:17:44.297Z,5.80
2019-05-23T20:20:14.301Z,6.47
2019-05-23T20:22:44.126Z,5.83
2019-05-23T20:25:14.531Z,7.23
2019-05-23T20:27:44.482Z,6.77
2019-05-23T20:30:35.796Z,6.53
2019-05-23T20:33:05.719Z,6.00
2019-05-23T20:35:35.602Z,5.33
2019-05-23T20:38:06.096Z,5.40
2019-05-23T20:40:36.274Z,5.37
2019-05-23T20:43:06.275Z,5.17
2019-05-23T20:45:36.564Z,5.27
2019-05-23T20:48:15.364Z,5.70
2019-05-23T20:50:47.082Z,4.95
2019-05-23T20:53:17.248Z,5.13
2019-05-23T20:55:47.916Z,5.47
2019-05-23T20:58:17.883Z,5.22
2019-05-23T21:00:57.991Z,5.03
2019-05-23T21:03:35.448Z,5.20
2019-05-23T21:06:07.137Z,5.13
2019-05-23T21:08:37.527Z,4.90
2019-05-23T21:11:07.286Z,5.10
2019-05-23T21:13:37.074Z,5.65
2019-05-23T21:16:07.233Z,4.90
2019-05-23T21:18:37.124Z,4.87
2019-05-23T21:21:07.632Z,5.30
2019-05-23T21:23:37.830Z,5.57
2019-05-23T21:26:08.106Z,6.00
2019-05-23T21:28:37.901Z,5.93
2019-05-23T21:31:15.589Z,6.10
2019-05-23T21:33:45.902Z,5.10
2019-05-23T21:36:15.693Z,6.12
2019-05-23T21:38:45.686Z,5.20
2019-05-23T21:41:17.730Z,5.87
2019-05-23T21:43:49.330Z,4.83
2019-05-23T21:46:19.303Z,5.63
2019-05-23T21:48:49.569Z,6.08
2019-05-23T21:51:21.489Z,5.27
2019-05-23T21:53:51.393Z,5.40
2019-05-23T21:56:21.148Z,5.60
2019-05-23T21:58:53.907Z,5.30
2019-05-23T22:01:49.742Z,5.03
2019-05-23T22:04:35.902Z,5.37
2019-05-23T22:07:09.253Z,5.53
2019-05-23T22:09:40.139Z,5.03
2019-05-23T22:12:13.601Z,5.40
2019-05-23T22:14:43.543Z,5.77
2019-05-23T22:17:13.639Z,5.30
2019-05-23T22:19:43.529Z,5.90
2019-05-23T22:22:13.542Z,5.07
2019-05-23T22:24:46.110Z,6.23
2019-05-23T22:27:19.154Z,5.43
2019-05-23T22:29:50.105Z,5.57
2019-05-23T22:32:21.396Z,4.93
2019-05-23T22:35:15.401Z,5.53
2019-05-23T22:37:45.437Z,5.03
2019-05-23T22:40:16.156Z,5.33
2019-05-23T22:42:46.065Z,5.43
2019-05-23T22:45:18.093Z,4.63
2019-05-23T22:47:48.551Z,5.17
2019-05-23T22:50:19.048Z,5.03
2019-05-23T22:52:48.874Z,5.20
2019-05-23T22:55:18.797Z,5.70
2019-05-23T22:57:48.887Z,5.25
2019-05-23T23:00:25.554Z,5.20
2019-05-23T23:02:56.195Z,5.17
2019-05-23T23:05:29.486Z,5.47
2019-05-23T23:07:59.810Z,5.20
2019-05-23T23:10:30.070Z,5.53
2019-05-23T23:12:59.955Z,5.17
2019-05-23T23:15:31.952Z,5.00
2019-05-23T23:18:01.689Z,5.07
2019-05-23T23:20:32.168Z,5.20
2019-05-23T23:23:01.830Z,5.47
2019-05-23T23:25:33.096Z,4.93
2019-05-23T23:28:03.103Z,5.10
2019-05-23T23:30:35.918Z,5.37
2019-05-23T23:33:05.659Z,4.80
2019-05-23T23:35:35.569Z,4.90
2019-05-23T23:38:06.480Z,4.87
2019-05-23T23:40:36.513Z,4.57
2019-05-23T23:43:06.413Z,4.93
2019-05-23T23:45:54.121Z,4.70
2019-05-23T23:48:41.575Z,4.37
2019-05-23T23:51:28.863Z,4.07
2019-05-23T23:54:16.393Z,4.50
2019-05-23T23:57:03.757Z,4.00
2019-05-23T23:59:32.618Z,4.70
